createdAt,value
2017-11-13T00:02:15.046Z,7.70
2017-11-13T00:04:43.400Z,8.43
2017-11-13T00:07:11.692Z,10.50
2017-11-13T00:09:39.985Z,11.17
2017-11-13T00:12:08.303Z,9.57
2017-11-13T00:14:36.621Z,9.13
2017-11-13T00:17:05.665Z,9.03
2017-11-13T00:19:33.985Z,10.53
2017-11-13T00:22:02.273Z,7.50
2017-11-13T00:24:30.577Z,10.13
2017-11-13T00:26:58.896Z,16.07
2017-11-13T00:29:27.952Z,8.33
2017-11-13T00:31:56.296Z,8.13
2017-11-13T00:34:25.352Z,9.63
2017-11-13T00:36:53.630Z,11.80
2017-11-13T00:39:21.953Z,8.90
2017-11-13T00:41:50.282Z,10.43
2017-11-13T00:44:18.562Z,8.60
2017-11-13T00:46:46.885Z,8.40
2017-11-13T00:49:15.205Z,8.23
2017-11-13T00:51:43.493Z,8.60
2017-11-13T00:54:11.824Z,10.30
2017-11-13T00:56:40.108Z,8.30
2017-11-13T00:59:08.458Z,12.13
2017-11-13T01:01:36.741Z,5.60
2017-11-13T01:04:05.056Z,8.73
2017-11-13T01:06:33.383Z,7.20
2017-11-13T01:09:01.673Z,9.13
2017-11-13T01:11:29.984Z,5.27
2017-11-13T01:13:58.278Z,6.70
2017-11-13T01:16:26.580Z,7.97
2017-11-13T01:18:54.861Z,7.43
2017-11-13T01:21:23.180Z,8.60
2017-11-13T01:23:51.568Z,9.80
2017-11-13T01:26:19.860Z,8.33
2017-11-13T01:28:49.477Z,7.83
2017-11-13T01:31:17.760Z,9.77
2017-11-13T01:33:46.045Z,9.50
2017-11-13T01:36:14.435Z,9.83
2017-11-13T01:38:42.714Z,8.27
2017-11-13T01:41:11.018Z,9.00
2017-11-13T01:43:39.336Z,12.13
2017-11-13T01:46:07.664Z,13.10
2017-11-13T01:48:36.017Z,9.03
2017-11-13T01:51:04.309Z,11.03
2017-11-13T01:53:32.614Z,14.00
2017-11-13T01:56:00.921Z,12.60
2017-11-13T01:58:29.244Z,14.00
2017-11-13T02:00:57.641Z,16.00
2017-11-13T02:03:25.993Z,14.20
2017-11-13T02:05:54.288Z,13.60
2017-11-13T02:08:22.585Z,17.80
2017-11-13T02:10:50.950Z,15.13
2017-11-13T02:13:19.273Z,15.53
2017-11-13T02:15:47.580Z,16.90
2017-11-13T02:18:15.913Z,15.20
2017-11-13T02:20:44.221Z,12.97
2017-11-13T02:23:12.553Z,12.80
2017-11-13T02:25:41.617Z,20.63
2017-11-13T02:28:09.944Z,16.20
2017-11-13T02:30:38.231Z,13.20
2017-11-13T02:33:06.542Z,14.77
2017-11-13T02:35:35.599Z,19.60
2017-11-13T02:38:03.916Z,14.50
2017-11-13T02:40:32.215Z,15.13
2017-11-13T02:43:01.413Z,16.60
2017-11-13T02:45:29.737Z,16.20
2017-11-13T02:47:58.041Z,19.47
2017-11-13T02:50:26.337Z,17.33
2017-11-13T02:52:54.692Z,15.07
2017-11-13T02:55:22.987Z,20.00
2017-11-13T02:57:52.057Z,17.93
2017-11-13T03:00:20.393Z,19.17
2017-11-13T03:02:48.701Z,18.13
2017-11-13T03:05:16.993Z,14.50
2017-11-13T03:07:45.316Z,19.50
2017-11-13T03:10:14.393Z,23.57
2017-11-13T03:12:42.681Z,16.77
2017-11-13T03:15:11.013Z,20.77
2017-11-13T03:17:39.337Z,20.03
2017-11-13T03:20:07.633Z,20.70
2017-11-13T03:22:35.980Z,20.50
2017-11-13T03:25:04.300Z,23.90
2017-11-13T03:27:32.632Z,20.10
2017-11-13T03:30:00.926Z,22.67
2017-11-13T03:32:29.247Z,24.40
2017-11-13T03:34:57.564Z,17.30
2017-11-13T03:37:25.897Z,24.70
2017-11-13T03:39:54.705Z,15.60
2017-11-13T03:42:23.028Z,18.20
2017-11-13T03:44:52.314Z,16.83
2017-11-13T03:47:20.711Z,18.83
2017-11-13T03:49:49.008Z,19.90
2017-11-13T03:52:17.320Z,18.77
2017-11-13T03:54:46.425Z,17.37
2017-11-13T03:57:15.494Z,19.90
2017-11-13T03:59:43.790Z,21.07
2017-11-13T04:02:12.189Z,19.10
2017-11-13T04:04:41.306Z,15.67
2017-11-13T04:07:09.621Z,23.00
2017-11-13T04:09:37.939Z,21.63
2017-11-13T04:12:06.272Z,17.43
2017-11-13T04:14:34.568Z,19.70
2017-11-13T04:17:04.057Z,18.40
2017-11-13T04:19:33.136Z,21.30
2017-11-13T04:22:01.494Z,27.07
2017-11-13T04:24:30.554Z,20.27
2017-11-13T04:26:58.849Z,19.80
2017-11-13T04:29:27.177Z,20.03
2017-11-13T04:31:56.272Z,19.10
2017-11-13T04:34:25.334Z,19.10
2017-11-13T04:36:53.673Z,24.27
2017-11-13T04:39:21.961Z,17.57
2017-11-13T04:41:50.293Z,17.00
2017-11-13T04:44:18.584Z,19.33
2017-11-13T04:46:46.921Z,15.67
2017-11-13T04:49:15.221Z,18.07
2017-11-13T04:51:44.310Z,18.83
2017-11-13T04:54:12.606Z,21.40
2017-11-13T04:56:40.943Z,19.77
2017-11-13T04:59:09.237Z,14.93
2017-11-13T05:01:37.529Z,21.00
2017-11-13T05:04:05.869Z,18.03
2017-11-13T05:06:34.199Z,16.03
2017-11-13T05:09:03.057Z,20.50
2017-11-13T05:11:31.344Z,15.63
2017-11-13T05:13:59.633Z,15.00
2017-11-13T05:16:27.946Z,13.33
2017-11-13T05:18:57.030Z,16.40
2017-11-13T05:21:25.316Z,15.77
2017-11-13T05:23:53.748Z,12.77
2017-11-13T05:26:22.034Z,13.97
2017-11-13T05:28:50.320Z,14.60
2017-11-13T05:31:19.409Z,14.33
2017-11-13T05:33:47.740Z,15.30
2017-11-13T05:36:16.027Z,13.60
2017-11-13T05:38:44.352Z,13.57
2017-11-13T05:41:12.673Z,12.73
2017-11-13T05:43:41.732Z,15.70
2017-11-13T05:46:10.151Z,13.13
2017-11-13T05:48:38.453Z,12.20
2017-11-13T05:51:06.741Z,12.27
2017-11-13T05:53:35.089Z,19.40
2017-11-13T05:56:03.380Z,10.90
2017-11-13T05:58:31.672Z,12.53
2017-11-13T06:01:00.096Z,9.30
2017-11-13T06:03:28.382Z,8.97
2017-11-13T06:05:56.695Z,11.30
2017-11-13T06:08:25.789Z,10.23
2017-11-13T06:10:54.080Z,11.10
2017-11-13T06:13:22.383Z,10.50
2017-11-13T06:15:51.468Z,16.40
2017-11-13T06:18:19.765Z,13.30
2017-11-13T06:20:48.085Z,12.90
2017-11-13T06:23:16.381Z,15.83
2017-11-13T06:25:44.678Z,11.43
2017-11-13T06:28:12.979Z,12.27
2017-11-13T06:30:41.677Z,10.30
2017-11-13T06:33:09.966Z,6.90
2017-11-13T06:35:38.277Z,8.63
2017-11-13T06:38:06.601Z,11.50
2017-11-13T06:40:35.661Z,12.63
2017-11-13T06:43:03.945Z,11.13
2017-11-13T06:45:32.248Z,8.03
2017-11-13T06:48:00.756Z,8.67
2017-11-13T06:50:29.037Z,9.67
2017-11-13T06:52:57.321Z,12.47
2017-11-13T06:55:25.625Z,9.13
2017-11-13T06:57:53.952Z,8.60
2017-11-13T07:00:22.274Z,13.10
2017-11-13T07:02:50.556Z,8.77
2017-11-13T07:05:18.842Z,8.20
2017-11-13T07:07:47.192Z,7.20
2017-11-13T07:10:16.160Z,10.00
2017-11-13T07:12:44.436Z,12.50
2017-11-13T07:15:12.774Z,9.63
2017-11-13T07:17:41.849Z,14.40
2017-11-13T07:20:10.140Z,15.20
2017-11-13T07:22:38.484Z,12.03
2017-11-13T07:25:06.774Z,13.27
2017-11-13T07:27:35.073Z,11.43
2017-11-13T07:30:03.388Z,13.77
2017-11-13T07:32:31.705Z,16.00
2017-11-13T07:34:59.988Z,16.80
2017-11-13T07:37:28.302Z,14.57
2017-11-13T07:39:57.355Z,13.47
2017-11-13T07:42:25.674Z,13.43
2017-11-13T07:44:53.982Z,15.60
2017-11-13T07:47:23.056Z,12.20
2017-11-13T07:49:51.340Z,14.63
2017-11-13T07:52:19.670Z,15.17
2017-11-13T07:54:48.724Z,15.93
2017-11-13T07:57:17.025Z,19.10
2017-11-13T07:59:45.341Z,15.63
2017-11-13T08:02:13.637Z,14.00
2017-11-13T08:04:41.953Z,12.83
2017-11-13T08:07:10.261Z,15.77
2017-11-13T08:09:38.592Z,13.60
2017-11-13T08:12:08.210Z,17.57
2017-11-13T08:14:36.545Z,14.00
2017-11-13T08:17:04.833Z,12.23
2017-11-13T08:19:33.176Z,13.60
2017-11-13T08:22:01.609Z,17.03
2017-11-13T08:24:29.892Z,12.93
2017-11-13T08:26:58.953Z,9.27
2017-11-13T08:29:27.269Z,12.93
2017-11-13T08:31:55.560Z,17.73
2017-11-13T08:34:23.877Z,9.47
2017-11-13T08:36:52.337Z,10.90
2017-11-13T08:39:20.629Z,15.60
2017-11-13T08:41:48.928Z,15.17
2017-11-13T08:44:18.019Z,15.20
2017-11-13T08:46:46.323Z,19.43
2017-11-13T08:49:15.373Z,11.77
2017-11-13T08:51:43.697Z,19.07
2017-11-13T08:54:11.990Z,17.33
2017-11-13T08:56:40.309Z,15.97
2017-11-13T08:59:09.364Z,15.50
2017-11-13T09:01:37.886Z,12.10
2017-11-13T09:04:06.288Z,15.40
2017-11-13T09:06:34.670Z,12.87
2017-11-13T09:09:03.012Z,11.40
2017-11-13T09:11:31.340Z,12.73
2017-11-13T09:13:59.646Z,11.27
2017-11-13T09:16:28.784Z,10.97
2017-11-13T09:18:57.117Z,11.97
2017-11-13T09:21:25.405Z,8.17
2017-11-13T09:23:53.688Z,10.83
2017-11-13T09:26:22.013Z,12.83
2017-11-13T09:28:50.333Z,15.03
2017-11-13T09:31:18.624Z,14.03
2017-11-13T09:33:47.954Z,11.53
2017-11-13T09:36:16.280Z,10.80
2017-11-13T09:38:44.573Z,13.13
2017-11-13T09:41:12.901Z,8.40
2017-11-13T09:43:41.189Z,12.63
2017-11-13T09:46:09.509Z,12.10
2017-11-13T09:48:37.803Z,10.13
2017-11-13T09:51:06.092Z,12.73
2017-11-13T09:53:34.413Z,10.27
2017-11-13T09:56:02.713Z,10.40
2017-11-13T09:58:31.773Z,11.80
2017-11-13T10:01:00.088Z,8.83
2017-11-13T10:03:28.385Z,14.10
2017-11-13T10:05:56.813Z,10.00
2017-11-13T10:08:25.105Z,11.60
2017-11-13T10:10:53.396Z,11.20
2017-11-13T10:13:21.717Z,10.13
2017-11-13T10:15:50.045Z,9.23
2017-11-13T10:18:18.333Z,7.90
2017-11-13T10:20:48.149Z,9.90
2017-11-13T10:23:16.536Z,8.17
2017-11-13T10:25:44.853Z,9.30
2017-11-13T10:28:13.902Z,6.03
2017-11-13T10:30:42.277Z,5.70
2017-11-13T10:33:10.557Z,7.43
2017-11-13T10:35:38.842Z,10.60
2017-11-13T10:38:07.197Z,6.93
2017-11-13T10:40:35.500Z,7.47
2017-11-13T10:43:03.789Z,11.90
2017-11-13T10:45:32.874Z,6.53
2017-11-13T10:48:01.192Z,7.73
2017-11-13T10:50:30.251Z,8.43
2017-11-13T10:52:58.529Z,6.03
2017-11-13T10:55:26.842Z,6.40
2017-11-13T10:57:55.153Z,5.37
2017-11-13T11:00:23.432Z,6.77
2017-11-13T11:02:51.752Z,10.03
2017-11-13T11:05:20.946Z,10.63
2017-11-13T11:07:49.229Z,5.90
2017-11-13T11:10:17.512Z,6.80
2017-11-13T11:12:45.833Z,6.40
2017-11-13T11:18:35.408Z,5.27
2017-11-13T11:21:03.729Z,4.63
2017-11-13T11:23:33.968Z,5.83
2017-11-13T11:26:18.069Z,7.80
2017-11-13T11:31:59.887Z,5.13
2017-11-13T11:37:34.117Z,4.97
2017-11-13T11:40:02.405Z,3.90
2017-11-13T11:42:30.723Z,8.63
2017-11-13T11:45:19.555Z,7.37
2017-11-13T11:47:53.717Z,5.73
2017-11-13T11:50:22.787Z,7.17
2017-11-13T11:52:51.097Z,4.40
2017-11-13T11:58:17.885Z,7.30
2017-11-13T12:00:46.164Z,9.63
2017-11-13T12:03:14.480Z,5.90
2017-11-13T12:05:43.565Z,6.47
2017-11-13T12:08:11.850Z,4.70
2017-11-13T12:10:40.132Z,3.40
2017-11-13T12:13:09.949Z,7.67
2017-11-13T12:15:38.237Z,3.53
2017-11-13T12:18:06.593Z,5.50
2017-11-13T12:20:34.904Z,5.73
2017-11-13T12:23:03.224Z,4.43
2017-11-13T12:25:31.508Z,4.13
2017-11-13T12:27:59.824Z,9.23
2017-11-13T12:30:28.124Z,5.93
2017-11-13T12:32:57.204Z,3.00
2017-11-13T12:35:25.569Z,4.80
2017-11-13T12:37:53.882Z,5.30
2017-11-13T12:40:22.173Z,3.37
2017-11-13T12:42:50.492Z,3.27
2017-11-13T12:45:19.573Z,2.93
2017-11-13T12:47:47.885Z,3.30
2017-11-13T12:50:17.124Z,2.90
2017-11-13T12:52:45.779Z,4.30
2017-11-13T12:55:14.884Z,2.67
2017-11-13T12:57:43.174Z,2.37
2017-11-13T13:00:11.460Z,2.67
2017-11-13T13:02:40.045Z,1.90
2017-11-13T13:05:08.333Z,3.80
2017-11-13T13:07:36.618Z,4.33
2017-11-13T13:10:05.014Z,1.93
2017-11-13T13:12:33.329Z,2.10
2017-11-13T13:15:02.401Z,2.40
2017-11-13T13:17:30.700Z,2.20
2017-11-13T13:19:59.012Z,2.27
2017-11-13T13:22:28.076Z,1.50
2017-11-13T13:24:56.411Z,2.97
2017-11-13T13:27:25.506Z,4.07
2017-11-13T13:29:53.790Z,3.20
2017-11-13T13:32:22.108Z,2.13
2017-11-13T13:34:51.156Z,2.83
2017-11-13T13:37:19.480Z,4.37
2017-11-13T13:39:47.797Z,2.77
2017-11-13T13:42:18.446Z,2.00
2017-11-13T13:44:47.493Z,4.40
2017-11-13T13:47:15.780Z,3.10
2017-11-13T13:49:44.081Z,6.00
2017-11-13T13:52:12.388Z,2.90
2017-11-13T13:54:40.680Z,3.37
2017-11-13T13:57:09.058Z,1.67
2017-11-13T13:59:37.337Z,1.63
2017-11-13T14:02:05.637Z,1.63
2017-11-13T14:04:33.953Z,4.77
2017-11-13T14:07:02.996Z,1.27
2017-11-13T14:09:31.321Z,1.77
2017-11-13T14:11:59.641Z,2.10
2017-11-13T14:14:28.709Z,3.10
2017-11-13T14:16:57.024Z,6.67
2017-11-13T14:19:25.337Z,2.00
2017-11-13T14:21:54.433Z,4.53
2017-11-13T14:24:23.492Z,2.50
2017-11-13T14:26:51.781Z,1.40
2017-11-13T14:29:20.097Z,3.20
2017-11-13T14:31:48.416Z,1.23
2017-11-13T14:34:17.494Z,1.40
2017-11-13T14:36:45.793Z,1.70
2017-11-13T14:39:14.072Z,2.93
2017-11-13T14:41:43.998Z,2.63
2017-11-13T14:44:12.312Z,2.20
2017-11-13T14:46:41.368Z,2.13
2017-11-13T14:49:09.657Z,2.10
2017-11-13T14:51:37.958Z,0.93
2017-11-13T14:54:06.347Z,0.60
2017-11-13T14:56:34.661Z,1.00
2017-11-13T14:59:02.938Z,1.50
2017-11-13T15:01:31.222Z,0.73
2017-11-13T15:03:59.616Z,1.73
2017-11-13T15:06:28.009Z,0.50
2017-11-13T15:08:56.323Z,0.80
2017-11-13T15:11:25.428Z,0.90
2017-11-13T15:13:53.760Z,0.53
2017-11-13T15:16:22.082Z,1.20
2017-11-13T15:18:50.369Z,0.93
2017-11-13T15:21:18.684Z,2.73
2017-11-13T15:23:47.002Z,1.50
2017-11-13T15:26:15.302Z,0.70
2017-11-13T15:28:43.625Z,1.10
2017-11-13T15:31:12.127Z,2.13
2017-11-13T15:33:40.402Z,0.70
2017-11-13T15:36:08.683Z,2.03
2017-11-13T15:38:37.000Z,1.20
2017-11-13T15:41:05.286Z,4.90
2017-11-13T15:43:33.627Z,2.67
2017-11-13T15:46:01.916Z,2.20
2017-11-13T15:48:30.198Z,2.87
2017-11-13T15:50:58.516Z,2.90
2017-11-13T15:53:26.841Z,2.93
2017-11-13T15:55:55.161Z,3.03
2017-11-13T15:58:24.209Z,5.20
2017-11-13T16:00:52.641Z,3.83
2017-11-13T16:03:21.717Z,6.70
2017-11-13T16:05:50.013Z,5.27
2017-11-13T16:08:18.332Z,6.53
2017-11-13T16:10:47.372Z,4.60
2017-11-13T16:13:16.685Z,5.20
2017-11-13T16:15:44.984Z,4.10
2017-11-13T16:18:13.301Z,5.90
2017-11-13T16:20:41.581Z,6.23
2017-11-13T16:23:10.870Z,8.60
2017-11-13T16:25:39.161Z,2.83
2017-11-13T16:28:08.610Z,6.40
2017-11-13T16:30:36.899Z,4.63
2017-11-13T16:33:05.185Z,6.83
2017-11-13T16:35:33.989Z,4.17
2017-11-13T16:38:02.304Z,2.50
2017-11-13T16:40:31.358Z,2.63
2017-11-13T16:42:59.672Z,2.97
2017-11-13T16:45:27.962Z,4.63
2017-11-13T16:47:56.294Z,2.73
2017-11-13T16:50:25.348Z,4.63
2017-11-13T16:52:53.878Z,4.10
2017-11-13T16:55:22.925Z,5.80
2017-11-13T16:57:51.269Z,2.50
2017-11-13T17:00:19.663Z,2.80
2017-11-13T17:02:47.944Z,3.67
2017-11-13T17:05:16.328Z,3.47
2017-11-13T17:07:44.633Z,3.83
2017-11-13T17:10:13.688Z,3.00
2017-11-13T17:12:42.001Z,2.37
2017-11-13T17:15:10.281Z,5.20
2017-11-13T17:17:38.594Z,5.47
2017-11-13T17:20:06.880Z,3.23
2017-11-13T17:22:35.198Z,2.37
2017-11-13T17:25:04.249Z,3.10
2017-11-13T17:27:32.549Z,6.60
2017-11-13T17:30:00.866Z,2.40
2017-11-13T17:32:29.180Z,3.10
2017-11-13T17:34:57.476Z,3.40
2017-11-13T17:37:25.760Z,3.57
2017-11-13T17:39:54.085Z,2.93
2017-11-13T17:42:22.450Z,4.70
2017-11-13T17:44:50.793Z,2.90
2017-11-13T17:47:19.088Z,3.13
2017-11-13T17:49:47.616Z,4.60
2017-11-13T17:52:15.908Z,4.70
2017-11-13T17:54:44.205Z,2.33
2017-11-13T17:57:12.521Z,4.30
2017-11-13T17:59:40.808Z,6.33
2017-11-13T18:02:09.117Z,2.03
2017-11-13T18:04:37.409Z,5.10
2017-11-13T18:07:06.717Z,3.73
2017-11-13T18:09:35.013Z,2.33
2017-11-13T18:12:03.316Z,3.60
2017-11-13T18:14:32.364Z,3.40
2017-11-13T18:17:00.675Z,2.57
2017-11-13T18:19:28.973Z,2.20
2017-11-13T18:21:57.288Z,4.13
2017-11-13T18:24:25.601Z,4.10
2017-11-13T18:26:54.673Z,2.80
2017-11-13T18:29:22.963Z,2.03
2017-11-13T18:31:51.272Z,2.13
2017-11-13T18:34:20.344Z,1.77
2017-11-13T18:36:48.655Z,2.50
2017-11-13T18:39:16.940Z,1.50
2017-11-13T18:41:45.269Z,3.50
2017-11-13T18:44:13.592Z,1.87
2017-11-13T18:46:41.885Z,3.70
2017-11-13T18:49:10.188Z,1.87
2017-11-13T18:51:38.518Z,3.83
2017-11-13T18:54:07.589Z,2.93
2017-11-13T18:56:36.071Z,2.97
2017-11-13T18:59:04.375Z,1.63
2017-11-13T19:01:32.769Z,1.73
2017-11-13T19:04:01.165Z,2.83
2017-11-13T19:06:29.492Z,4.70
2017-11-13T19:08:57.801Z,2.20
2017-11-13T19:11:26.087Z,4.70
2017-11-13T19:13:54.408Z,3.20
2017-11-13T19:16:22.801Z,4.70
2017-11-13T19:18:51.080Z,3.93
2017-11-13T19:21:19.409Z,4.43
2017-11-13T19:23:48.456Z,3.87
2017-11-13T19:26:16.772Z,4.50
2017-11-13T19:28:45.060Z,6.33
2017-11-13T19:31:13.372Z,2.83
2017-11-13T19:33:41.780Z,6.53
2017-11-13T19:36:10.848Z,13.23
2017-11-13T19:38:39.129Z,10.00
2017-11-13T19:41:07.839Z,8.90
2017-11-13T19:43:36.120Z,7.80
2017-11-13T19:46:04.413Z,4.90
2017-11-13T19:48:32.728Z,8.47
2017-11-13T19:51:01.008Z,3.63
2017-11-13T19:53:29.327Z,4.57
2017-11-13T19:55:58.388Z,6.33
2017-11-13T19:58:26.674Z,2.93
2017-11-13T20:00:55.076Z,3.60
2017-11-13T20:03:23.402Z,4.53
2017-11-13T20:05:52.453Z,3.80
2017-11-13T20:08:20.865Z,2.90
2017-11-13T20:10:49.971Z,3.80
2017-11-13T20:13:18.384Z,3.40
2017-11-13T20:15:46.700Z,4.20
2017-11-13T20:18:14.995Z,5.00
2017-11-13T20:20:44.322Z,2.62
2017-11-13T20:23:12.655Z,2.33
2017-11-13T20:25:40.941Z,2.50
2017-11-13T20:28:09.270Z,2.97
2017-11-13T20:30:37.555Z,3.10
2017-11-13T20:33:07.368Z,2.73
2017-11-13T20:35:36.439Z,2.93
2017-11-13T20:38:04.729Z,3.55
2017-11-13T20:40:33.045Z,5.60
2017-11-13T20:43:02.088Z,4.93
2017-11-13T20:45:30.411Z,6.15
2017-11-13T20:47:58.709Z,3.92
2017-11-13T20:50:27.065Z,3.03
2017-11-13T20:52:56.201Z,3.17
2017-11-13T20:55:24.503Z,2.67
2017-11-13T20:57:52.833Z,5.13
2017-11-13T21:00:21.125Z,1.70
2017-11-13T21:02:49.417Z,2.58
2017-11-13T21:05:18.636Z,2.07
2017-11-13T21:07:48.209Z,2.47
2017-11-13T21:10:16.530Z,2.70
2017-11-13T21:12:44.929Z,3.22
2017-11-13T21:15:14.344Z,4.50
2017-11-13T21:17:42.692Z,2.30
2017-11-13T21:20:10.979Z,3.27
2017-11-13T21:22:39.423Z,2.50
2017-11-13T21:25:08.949Z,3.47
2017-11-13T21:27:37.244Z,2.17
2017-11-13T21:30:07.309Z,2.47
2017-11-13T21:32:35.696Z,3.57
2017-11-13T21:35:05.809Z,6.53
2017-11-13T21:37:34.101Z,2.53
2017-11-13T21:40:02.437Z,6.40
2017-11-13T21:42:32.257Z,1.37
2017-11-13T21:45:01.312Z,2.43
2017-11-13T21:47:30.982Z,5.13
2017-11-13T21:49:59.273Z,5.80
2017-11-13T21:52:27.606Z,2.47
2017-11-13T21:54:55.927Z,2.47
2017-11-13T21:57:25.181Z,1.63
2017-11-13T21:59:53.478Z,2.57
2017-11-13T22:02:21.757Z,1.80
2017-11-13T22:04:50.090Z,3.07
2017-11-13T22:07:18.402Z,2.83
2017-11-13T22:09:46.784Z,2.10
2017-11-13T22:12:18.071Z,5.37
2017-11-13T22:14:46.392Z,3.40
2017-11-13T22:17:16.543Z,6.20
2017-11-13T22:19:44.860Z,2.80
2017-11-13T22:22:13.149Z,4.03
2017-11-13T22:24:44.426Z,6.70
2017-11-13T22:27:12.700Z,3.13
2017-11-13T22:29:40.986Z,3.10
2017-11-13T22:32:09.380Z,1.97
2017-11-13T22:34:37.688Z,3.37
2017-11-13T22:37:07.904Z,4.13
2017-11-13T22:39:36.214Z,2.23
2017-11-13T22:42:04.501Z,3.20
2017-11-13T22:44:33.578Z,4.10
2017-11-13T22:47:01.852Z,2.50
2017-11-13T22:49:30.245Z,4.03
2017-11-13T22:51:58.558Z,2.70
2017-11-13T22:54:26.862Z,3.73
2017-11-13T22:56:55.145Z,2.30
2017-11-13T22:59:23.456Z,3.47
2017-11-13T23:01:52.517Z,2.60
2017-11-13T23:04:20.800Z,3.10
2017-11-13T23:06:49.100Z,3.47
2017-11-13T23:09:17.421Z,2.77
2017-11-13T23:11:45.728Z,5.07
2017-11-13T23:14:14.808Z,1.97
2017-11-13T23:16:44.674Z,3.93
2017-11-13T23:19:14.763Z,3.90
2017-11-13T23:21:43.048Z,2.47
2017-11-13T23:24:12.886Z,2.43
2017-11-13T23:26:41.949Z,2.77
2017-11-13T23:29:10.276Z,2.70
2017-11-13T23:31:38.552Z,2.43
2017-11-13T23:34:06.868Z,3.47
2017-11-13T23:36:35.920Z,5.10
2017-11-13T23:39:05.284Z,2.65
2017-11-13T23:41:33.597Z,2.60
2017-11-13T23:44:01.966Z,2.80
2017-11-13T23:46:31.012Z,2.77
2017-11-13T23:48:59.341Z,4.53
2017-11-13T23:51:29.362Z,4.25
2017-11-13T23:53:57.668Z,3.43
2017-11-13T23:56:25.952Z,4.40
2017-11-13T23:58:54.272Z,7.80
